Time;durP1;ratioP1;P1;durP2;ratioP2;P2;SDS_P1;SDS_P2;PMS_P1;PMS_P2;Temp;Humidity;BMP_temperature;BMP_pressure;BME280_temperature;BME280_humidity;BME280_pressure;Samples;Min_cycle;Max_cycle;Signal;HPM_P1;HPM_P2
2021/12/19 00:00:26;;;;;;;4.72;2.45;;;;;;;-0.07;70.82;99996.40;1717696;83;20955;-74
2021/12/19 00:03:31;;;;;;;4.03;2.30;;;;;;;-0.07;70.73;99987.31;1726010;82;21000;-74
2021/12/19 00:08:45;;;;;;;5.33;2.60;;;;;;;-0.05;70.93;99961.67;1717977;83;21000;-74
2021/12/19 00:10:57;;;;;;;3.55;2.25;;;;;;;-0.05;71.01;99947.39;1717911;83;21793;-73
2021/12/19 00:13:27;;;;;;;2.98;1.90;;;;;;;-0.05;71.02;99947.84;1718487;81;21505;-73
2021/12/19 00:15:55;;;;;;;4.05;2.60;;;;;;;-0.08;71.03;99946.23;1735144;81;20989;-73
2021/12/19 00:18:21;;;;;;;2.58;1.47;;;;;;;-0.09;71.14;99936.77;1721639;82;21090;-73
2021/12/19 00:20:48;;;;;;;2.90;1.60;;;;;;;-0.08;71.20;99923.33;1738436;80;21021;-72
2021/12/19 00:23:15;;;;;;;3.08;1.70;;;;;;;-0.08;71.27;99924.16;1746426;81;21829;-73
2021/12/19 00:25:42;;;;;;;3.05;1.72;;;;;;;-0.09;71.40;99913.85;1740666;81;21067;-73
2021/12/19 00:28:08;;;;;;;2.52;1.47;;;;;;;-0.08;71.48;99914.23;1717729;81;21100;-73
2021/12/19 00:30:35;;;;;;;2.90;1.85;;;;;;;-0.09;71.59;99917.75;1720616;81;21032;-73
2021/12/19 00:33:02;;;;;;;5.20;1.65;;;;;;;-0.07;71.70;99909.44;1718401;81;21520;-73
2021/12/19 00:35:29;;;;;;;3.42;2.00;;;;;;;-0.07;71.79;99907.67;1723804;81;22390;-73
2021/12/19 00:37:55;;;;;;;3.92;1.98;;;;;;;-0.08;71.87;99896.07;1721093;81;21044;-74
2021/12/19 00:40:22;;;;;;;3.75;2.12;;;;;;;-0.08;72.01;99890.42;1747317;81;20997;-73
2021/12/19 00:42:52;;;;;;;3.45;2.00;;;;;;;-0.07;72.08;99896.00;1753778;80;20970;-73
2021/12/19 00:45:24;;;;;;;3.45;2.05;;;;;;;-0.07;72.16;99885.61;1789175;79;20968;-73
2021/12/19 00:47:45;;;;;;;2.65;1.90;;;;;;;-0.04;72.24;99888.52;1781726;79;21843;-74
2021/12/19 00:50:12;;;;;;;4.28;2.00;;;;;;;-0.05;72.27;99877.30;1772543;80;20989;-73
2021/12/19 00:52:40;;;;;;;3.40;1.87;;;;;;;-0.04;72.37;99871.19;1772670;79;20984;-73
2021/12/19 00:55:08;;;;;;;4.15;2.17;;;;;;;-0.05;72.49;99873.40;1770053;79;21031;-74
2021/12/19 00:57:34;;;;;;;4.08;2.10;;;;;;;-0.03;72.58;99866.84;1788755;79;21362;-73
2021/12/19 01:00:00;;;;;;;5.10;2.33;;;;;;;-0.03;72.62;99857.30;1764877;80;22191;-74
2021/12/19 01:02:27;;;;;;;4.12;1.70;;;;;;;-0.02;72.68;99846.45;1770698;80;21506;-74
2021/12/19 01:04:54;;;;;;;3.15;1.70;;;;;;;-0.01;72.75;99846.84;1764771;80;20959;-74
2021/12/19 01:07:20;;;;;;;5.03;1.98;;;;;;;0.00;72.84;99840.77;1777449;79;21000;-74
2021/12/19 01:09:46;;;;;;;3.70;1.70;;;;;;;0.03;72.90;99833.28;1773941;79;21383;-73
2021/12/19 01:12:13;;;;;;;4.95;2.25;;;;;;;0.03;72.98;99824.20;1777272;79;22767;-74
2021/12/19 01:14:40;;;;;;;4.40;1.85;;;;;;;0.04;73.04;99821.98;1785847;79;21031;-73
2021/12/19 01:17:07;;;;;;;4.08;2.00;;;;;;;0.04;73.10;99806.41;1775643;79;20952;-73
2021/12/19 01:19:36;;;;;;;3.92;2.05;;;;;;;0.05;73.16;99806.79;1789372;79;21518;-74
2021/12/19 01:22:04;;;;;;;4.75;2.35;;;;;;;0.06;73.21;99796.33;1789795;79;20992;-73
2021/12/19 01:24:31;;;;;;;3.05;1.95;;;;;;;0.08;73.31;99805.34;1774060;79;21847;-73
2021/12/19 01:26:58;;;;;;;2.65;2.00;;;;;;;0.07;73.37;99799.31;1781322;79;21001;-74
2021/12/19 01:29:24;;;;;;;6.05;2.42;;;;;;;0.08;73.39;99803.59;1785395;79;21403;-74
2021/12/19 01:31:51;;;;;;;4.12;2.20;;;;;;;0.08;73.45;99791.91;1773430;79;21051;-74
2021/12/19 01:34:17;;;;;;;4.08;1.90;;;;;;;0.07;73.53;99787.63;1775833;79;20988;-74
2021/12/19 01:36:44;;;;;;;3.95;2.25;;;;;;;0.08;73.56;99782.81;1784241;79;21802;-73
2021/12/19 01:39:11;;;;;;;3.37;2.17;;;;;;;0.08;73.62;99771.13;1776833;79;20996;-73
2021/12/19 01:41:51;;;;;;;4.53;2.30;;;;;;;0.09;73.65;99762.42;1786763;79;21351;-74
2021/12/19 01:44:18;;;;;;;3.40;2.20;;;;;;;0.10;73.71;99759.41;1774777;79;21037;-73
2021/12/19 01:46:46;;;;;;;4.05;2.30;;;;;;;0.11;73.80;99755.89;1767799;79;21388;-74
2021/12/19 01:49:14;;;;;;;4.47;2.50;;;;;;;0.12;73.84;99740.69;1775310;79;21787;-73
2021/12/19 01:51:41;;;;;;;3.45;2.00;;;;;;;0.13;73.86;99735.88;1773014;79;21444;-73
2021/12/19 01:54:08;;;;;;;3.08;1.90;;;;;;;0.14;73.97;99736.27;1752248;80;20953;-73
2021/12/19 01:56:35;;;;;;;4.17;2.30;;;;;;;0.13;74.05;99738.02;1739787;81;21053;-72
2021/12/19 01:59:01;;;;;;;4.17;2.37;;;;;;;0.13;74.22;99735.42;1747245;81;21040;-73
2021/12/19 02:01:28;;;;;;;4.28;2.22;;;;;;;0.13;74.44;99725.50;1745114;81;22257;-73
2021/12/19 02:03:54;;;;;;;4.03;2.35;;;;;;;0.12;74.60;99727.70;1748967;81;20969;-73
2021/12/19 02:06:21;;;;;;;3.67;2.08;;;;;;;0.11;74.75;99716.48;1717219;81;21008;-72
2021/12/19 02:08:53;;;;;;;4.65;2.40;;;;;;;0.10;74.99;99708.31;1718614;81;21508;-74
2021/12/19 02:11:18;;;;;;;3.80;2.40;;;;;;;0.09;75.17;99690.19;1717570;81;21419;-73
2021/12/19 02:13:45;;;;;;;5.12;3.10;;;;;;;0.08;75.36;99687.20;1724201;82;21809;-74
2021/12/19 02:16:11;;;;;;;4.20;2.50;;;;;;;0.07;75.48;99679.88;1723299;81;21009;-74
2021/12/19 02:18:37;;;;;;;4.03;2.37;;;;;;;0.07;75.56;99668.65;1719396;81;21562;-73
2021/12/19 02:21:04;;;;;;;4.08;2.60;;;;;;;0.08;75.67;99663.38;1717401;81;20969;-73
2021/12/19 02:23:30;;;;;;;3.60;2.37;;;;;;;0.09;75.76;99657.72;1710994;81;21023;-73
2021/12/19 02:25:57;;;;;;;4.17;2.50;;;;;;;0.08;75.88;99638.71;1718988;82;21860;-73
2021/12/19 02:28:23;;;;;;;4.28;2.55;;;;;;;0.09;76.03;99638.25;1729926;81;20945;-73
2021/12/19 02:30:50;;;;;;;4.92;2.72;;;;;;;0.08;76.30;99635.28;1729908;81;21111;-74
2021/12/19 02:33:20;;;;;;;3.17;2.60;;;;;;;0.07;76.59;99621.91;1720720;81;21398;-73
2021/12/19 02:35:53;;;;;;;4.70;2.50;;;;;;;0.07;76.77;99611.07;1718077;81;20942;-73
2021/12/19 02:48:41;;;;;;;4.35;3.12;;;;;;;0.10;77.08;99567.27;1713019;83;21048;-73
2021/12/19 02:51:07;;;;;;;5.03;3.17;;;;;;;0.10;77.13;99562.06;1682890;84;21852;-73
2021/12/19 02:53:37;;;;;;;4.78;2.92;;;;;;;0.10;77.22;99569.40;1754783;80;21584;-73
2021/12/19 02:56:08;;;;;;;7.40;3.75;;;;;;;0.11;77.30;99584.06;1751908;80;21020;-74
2021/12/19 02:58:35;;;;;;;4.28;3.25;;;;;;;0.13;77.35;99568.40;1767786;80;20969;-73
2021/12/19 03:01:05;;;;;;;5.20;2.80;;;;;;;0.16;77.42;99573.43;1764656;80;21018;-74
2021/12/19 03:03:32;;;;;;;5.80;4.03;;;;;;;0.17;77.47;99568.61;1750777;80;21648;-73
2021/12/19 03:05:58;;;;;;;6.12;3.90;;;;;;;0.17;77.51;99561.66;1770972;80;20937;-74
2021/12/19 03:08:26;;;;;;;7.78;3.80;;;;;;;0.21;77.55;99553.28;1723373;80;21499;-73
2021/12/19 03:11:32;;;;;;;5.72;4.30;;;;;;;0.23;77.57;99556.64;1751304;80;21057;-73
2021/12/19 03:17:56;;;;;;;7.28;4.42;;;;;;;0.24;77.59;99554.41;1753927;80;21561;-76
2021/12/19 03:18:46;;;;;;;5.72;4.20;;;;;;;0.28;77.67;99547.68;1756695;80;20946;-73
2021/12/19 03:21:17;;;;;;;5.95;4.33;;;;;;;0.30;77.72;99539.00;1763750;80;20986;-74
2021/12/19 03:23:43;;;;;;;6.05;4.70;;;;;;;0.31;77.74;99538.08;1765515;80;21055;-74
2021/12/19 03:26:09;;;;;;;6.05;4.30;;;;;;;0.31;77.87;99517.30;1746882;80;20944;-73
2021/12/19 03:28:36;;;;;;;7.55;4.72;;;;;;;0.31;77.88;99514.24;1726759;82;21808;-72
2021/12/19 03:31:04;;;;;;;7.65;4.97;;;;;;;0.34;77.93;99511.94;1696014;83;21431;-71
2021/12/19 03:33:31;;;;;;;6.60;4.83;;;;;;;0.37;77.99;99513.06;1701825;83;21063;-72
2021/12/19 03:35:58;;;;;;;6.45;4.58;;;;;;;0.38;78.01;99497.40;1722060;82;20961;-72
2021/12/19 03:38:25;;;;;;;8.18;5.83;;;;;;;0.41;78.05;99514.61;1735682;81;21521;-72
2021/12/19 03:41:06;;;;;;;8.60;5.30;;;;;;;0.41;78.07;99495.97;1733370;82;21875;-72
2021/12/19 03:43:22;;;;;;;9.60;7.60;;;;;;;0.44;78.09;99486.70;1728956;82;21020;-72
2021/12/19 03:45:50;;;;;;;10.18;7.33;;;;;;;0.46;78.09;99487.45;1710594;82;21051;-72
2021/12/19 03:48:16;;;;;;;10.03;7.42;;;;;;;0.47;78.05;99474.84;1737837;81;20972;-72
2021/12/19 03:50:48;;;;;;;8.20;6.42;;;;;;;0.50;78.06;99473.86;1742301;81;20961;-72
2021/12/19 03:53:17;;;;;;;8.70;6.75;;;;;;;0.51;78.08;99467.28;1733957;81;21821;-73
2021/12/19 03:55:44;;;;;;;7.60;5.72;;;;;;;0.51;78.11;99473.78;1735270;81;20979;-74
2021/12/19 03:58:10;;;;;;;9.25;6.58;;;;;;;0.49;78.50;99465.23;1732592;81;21469;-73
2021/12/19 04:00:37;;;;;;;7.25;6.17;;;;;;;0.54;79.02;99464.98;1732203;81;21260;-74
2021/12/19 04:03:07;;;;;;;8.48;6.70;;;;;;;0.54;79.19;99450.22;1726122;82;20995;-74
2021/12/19 04:05:34;;;;;;;8.40;6.78;;;;;;;0.57;79.36;99450.05;1734095;81;21849;-74
2021/12/19 04:08:00;;;;;;;8.25;6.72;;;;;;;0.59;79.32;99446.09;1732026;81;21677;-73
2021/12/19 04:10:27;;;;;;;8.98;6.90;;;;;;;0.62;79.12;99437.30;1732264;81;21371;-73
2021/12/19 04:12:55;;;;;;;8.65;7.03;;;;;;;0.62;78.86;99422.54;1731321;81;21026;-72
2021/12/19 04:15:21;;;;;;;8.63;6.75;;;;;;;0.63;78.70;99418.17;1733168;81;21033;-72
2021/12/19 04:17:50;;;;;;;8.38;6.40;;;;;;;0.64;78.65;99403.80;1732699;81;21847;-73
2021/12/19 04:20:18;;;;;;;9.00;7.10;;;;;;;0.66;78.59;99401.11;1733501;81;21502;-72
2021/12/19 04:22:47;;;;;;;10.08;7.25;;;;;;;0.67;78.49;99402.78;1735830;81;20991;-74
2021/12/19 04:25:14;;;;;;;10.35;7.80;;;;;;;0.66;78.46;99398.05;1726881;81;21364;-73
2021/12/19 04:27:42;;;;;;;8.88;7.25;;;;;;;0.68;78.43;99390.20;1732786;81;20970;-73
2021/12/19 04:30:11;;;;;;;10.25;7.85;;;;;;;0.69;78.40;99391.41;1732645;81;22825;-73
2021/12/19 04:32:43;;;;;;;9.53;7.42;;;;;;;0.70;78.34;99376.19;1738323;81;21149;-73
2021/12/19 04:35:09;;;;;;;10.75;7.50;;;;;;;0.72;78.29;99375.64;1729398;81;21388;-73
2021/12/19 04:40:22;;;;;;;9.33;6.83;;;;;;;0.74;78.13;99358.19;1735343;81;21079;-74
2021/12/19 04:53:51;;;;;;;10.30;7.90;;;;;;;0.80;77.80;99344.03;1720423;81;21095;-76
2021/12/19 04:59:09;;;;;;;11.30;8.58;;;;;;;0.83;77.64;99330.85;1722429;82;20970;-78
2021/12/19 05:04:11;;;;;;;10.75;7.95;;;;;;;0.89;77.48;99293.29;1683381;83;21061;-77
2021/12/19 05:14:38;;;;;;;9.38;7.80;;;;;;;0.91;77.39;99249.38;1751653;80;21066;-79
2021/12/19 05:17:09;;;;;;;10.50;7.58;;;;;;;0.92;77.40;99248.45;1751213;80;21058;-75
2021/12/19 05:19:48;;;;;;;10.68;8.23;;;;;;;0.92;77.36;99242.41;1754412;80;21062;-79
2021/12/19 05:22:12;;;;;;;10.13;7.97;;;;;;;0.93;77.47;99246.68;1748131;80;22726;-78
2021/12/19 05:25:00;;;;;;;10.08;8.43;;;;;;;0.92;77.48;99238.51;1754029;80;21075;-73
2021/12/19 05:27:17;;;;;;;10.35;8.35;;;;;;;0.93;77.69;99229.31;1750285;80;20948;-80
2021/12/19 05:29:43;;;;;;;10.23;8.40;;;;;;;0.94;77.72;99220.59;1752037;80;21075;-77
2021/12/19 05:32:10;;;;;;;10.25;8.28;;;;;;;0.94;77.79;99222.36;1738298;80;21062;-80
2021/12/19 05:34:38;;;;;;;10.78;8.03;;;;;;;0.94;77.92;99217.98;1750635;80;22718;-72
2021/12/19 05:45:20;;;;;;;11.60;8.93;;;;;;;0.94;78.19;99207.59;1779444;79;21070;-74
2021/12/19 05:47:49;;;;;;;10.78;8.70;;;;;;;0.95;78.26;99204.53;1784171;79;21875;-73
2021/12/19 05:50:19;;;;;;;9.78;8.48;;;;;;;0.94;78.25;99198.95;1778730;79;20933;-72
2021/12/19 05:52:47;;;;;;;10.72;8.85;;;;;;;0.95;78.30;99200.63;1785798;79;21106;-74
2021/12/19 05:55:15;;;;;;;12.25;8.85;;;;;;;0.96;78.38;99212.23;1732977;81;20980;-74
2021/12/19 05:57:42;;;;;;;10.00;8.33;;;;;;;0.95;78.40;99204.06;1788253;79;21003;-73
2021/12/19 06:00:13;;;;;;;11.48;8.93;;;;;;;0.96;78.50;99208.80;1787966;79;21826;-73
2021/12/19 06:02:41;;;;;;;11.97;9.73;;;;;;;0.95;78.62;99201.92;1788428;80;21525;-73
2021/12/19 06:05:09;;;;;;;11.68;9.25;;;;;;;0.93;78.74;99198.59;1790025;79;20944;-73
2021/12/19 06:07:35;;;;;;;9.90;8.58;;;;;;;0.92;78.86;99187.35;1777898;80;21020;-73
2021/12/19 06:10:04;;;;;;;9.40;7.55;;;;;;;0.92;78.94;99185.22;1792943;79;21042;-73
2021/12/19 06:12:31;;;;;;;11.03;9.23;;;;;;;0.91;78.97;99173.98;1785074;79;21831;-74
2021/12/19 06:14:58;;;;;;;11.08;8.90;;;;;;;0.93;79.00;99169.98;1780048;79;21082;-72
2021/12/19 06:17:26;;;;;;;12.03;8.98;;;;;;;0.93;79.04;99147.89;1789109;80;20852;-72
2021/12/19 06:19:54;;;;;;;10.28;8.50;;;;;;;0.94;79.06;99145.20;1791026;79;21019;-73
2021/12/19 06:22:20;;;;;;;11.30;9.23;;;;;;;0.95;79.03;99150.77;1699833;82;21063;-73
2021/12/19 06:24:47;;;;;;;11.22;9.00;;;;;;;0.97;79.03;99141.13;1784826;79;21854;-73
2021/12/19 06:27:13;;;;;;;11.75;9.05;;;;;;;0.97;79.06;99136.41;1774285;79;20953;-73
2021/12/19 06:29:40;;;;;;;10.93;9.18;;;;;;;0.98;79.08;99132.41;1762641;80;21059;-73
2021/12/19 06:32:06;;;;;;;11.20;9.13;;;;;;;0.99;79.05;99152.27;1768995;79;21043;-73
2021/12/19 06:34:33;;;;;;;11.57;8.95;;;;;;;1.03;79.02;99127.75;1788861;79;21442;-73
2021/12/19 06:37:00;;;;;;;11.12;8.98;;;;;;;1.05;78.99;99121.98;1792648;78;21796;-73
2021/12/19 06:39:26;;;;;;;10.82;9.40;;;;;;;1.07;78.96;99121.92;1797383;78;20932;-72
2021/12/19 06:41:53;;;;;;;12.20;9.95;;;;;;;1.09;78.96;99120.89;1789073;79;20969;-73
2021/12/19 06:44:22;;;;;;;10.32;8.63;;;;;;;1.11;78.90;99109.92;1787747;79;21411;-73
2021/12/19 06:46:48;;;;;;;13.25;9.43;;;;;;;1.13;78.88;99101.55;1778405;79;21009;-72
2021/12/19 06:49:14;;;;;;;10.78;8.95;;;;;;;1.15;78.86;99100.99;1783007;79;22426;-72
2021/12/19 06:51:41;;;;;;;10.90;8.83;;;;;;;1.17;78.79;99100.09;1773387;79;21431;-72
2021/12/19 06:54:07;;;;;;;11.53;8.78;;;;;;;1.21;78.69;99099.80;1773285;78;21437;-72
2021/12/19 06:56:34;;;;;;;10.65;8.30;;;;;;;1.24;78.63;99103.50;1771672;79;20944;-73
2021/12/19 06:59:01;;;;;;;10.38;9.23;;;;;;;1.28;78.53;99116.70;1770433;79;20977;-74
2021/12/19 07:01:27;;;;;;;11.25;8.23;;;;;;;1.30;78.43;99074.98;1764032;79;21786;-74
2021/12/19 07:03:54;;;;;;;11.90;9.45;;;;;;;1.33;78.38;99068.28;1782432;79;20990;-73
2021/12/19 07:06:20;;;;;;;10.93;8.83;;;;;;;1.36;78.32;99072.02;1772643;79;21051;-73
2021/12/19 07:08:46;;;;;;;11.10;9.48;;;;;;;1.38;78.25;99064.95;1776908;79;21098;-72
2021/12/19 07:11:13;;;;;;;11.80;9.00;;;;;;;1.40;78.19;99046.16;1784424;79;21003;-72
2021/12/19 07:13:39;;;;;;;11.83;9.30;;;;;;;1.42;78.11;99047.73;1783119;79;22201;-73
2021/12/19 07:16:07;;;;;;;9.80;7.55;;;;;;;1.43;78.03;99040.76;1773308;79;20916;-72
2021/12/19 07:18:36;;;;;;;11.85;8.68;;;;;;;1.43;77.93;99027.75;1773576;79;21028;-72
2021/12/19 07:21:05;;;;;;;10.50;9.05;;;;;;;1.45;77.92;99033.72;1775610;79;21503;-73
2021/12/19 07:23:32;;;;;;;9.73;8.15;;;;;;;1.48;77.92;99050.42;1788299;79;21109;-72
2021/12/19 07:25:59;;;;;;;11.90;9.30;;;;;;;1.51;77.86;99035.08;1775838;79;22609;-73
2021/12/19 07:28:27;;;;;;;13.53;9.35;;;;;;;1.53;77.83;99025.39;1776080;80;20939;-72
2021/12/19 07:30:54;;;;;;;11.12;8.83;;;;;;;1.56;77.80;99007.01;1777781;80;20993;-73
2021/12/19 07:33:22;;;;;;;9.90;8.80;;;;;;;1.59;77.71;99013.30;1780556;80;21026;-72
2021/12/19 07:35:49;;;;;;;11.95;9.55;;;;;;;1.61;77.67;99013.56;1774506;80;20993;-72
2021/12/19 07:38:25;;;;;;;11.33;7.92;;;;;;;1.62;77.61;98997.02;1786205;80;22697;-74
2021/12/19 07:40:46;;;;;;;11.28;8.08;;;;;;;1.64;77.50;99000.38;1757607;80;21399;-73
2021/12/19 07:43:14;;;;;;;12.33;9.43;;;;;;;1.65;77.46;98991.64;1764115;80;21054;-73
2021/12/19 07:45:41;;;;;;;9.70;8.25;;;;;;;1.67;77.46;99007.14;1762715;80;21027;-73
2021/12/19 07:48:08;;;;;;;10.63;7.80;;;;;;;1.68;77.46;98982.31;1733397;80;21408;-73
2021/12/19 07:50:36;;;;;;;10.50;8.40;;;;;;;1.70;77.42;98983.05;1747220;80;22688;-73
2021/12/19 07:53:03;;;;;;;10.53;8.78;;;;;;;1.72;77.43;98985.07;1744112;80;21008;-72
2021/12/19 07:55:30;;;;;;;12.05;9.10;;;;;;;1.76;77.45;98979.69;1769497;80;21099;-74
2021/12/19 07:57:56;;;;;;;11.15;8.50;;;;;;;1.78;77.37;98970.00;1775000;80;20999;-73
2021/12/19 08:00:25;;;;;;;11.03;8.50;;;;;;;1.77;77.33;98973.08;1751769;80;21047;-73
2021/12/19 08:02:52;;;;;;;10.43;8.48;;;;;;;1.76;77.32;98977.91;1712164;83;22259;-72
2021/12/19 08:05:19;;;;;;;7.75;5.67;;;;;;;1.77;77.29;98956.63;1756261;80;20957;-73
2021/12/19 08:07:49;;;;;;;11.35;8.20;;;;;;;1.78;77.31;98970.83;1765117;80;21012;-73
2021/12/19 08:12:55;;;;;;;11.10;8.23;;;;;;;1.81;77.38;98952.87;1741272;80;21065;-74
2021/12/19 08:15:24;;;;;;;10.70;8.38;;;;;;;1.83;77.39;98951.83;1743287;80;22588;-72
2021/12/19 08:17:52;;;;;;;10.32;8.20;;;;;;;1.85;77.38;98942.64;1770337;80;21095;-73
2021/12/19 08:20:37;;;;;;;9.98;8.48;;;;;;;1.85;77.39;98934.36;1717459;82;21132;-73
2021/12/19 08:22:58;;;;;;;10.30;8.05;;;;;;;1.85;77.39;98933.52;1728623;80;22360;-72
2021/12/19 08:25:25;;;;;;;10.68;8.40;;;;;;;1.87;77.47;98936.38;1718200;81;21084;-77
2021/12/19 08:27:53;;;;;;;11.43;8.10;;;;;;;1.89;77.54;98931.07;1739705;80;21811;-73
2021/12/19 08:30:22;;;;;;;13.15;8.18;;;;;;;1.90;77.61;98914.04;1765704;80;21090;-75
2021/12/19 08:33:19;;;;;;;11.78;8.20;;;;;;;1.89;77.65;98907.17;1742369;80;21066;-77
2021/12/19 08:35:47;;;;;;;9.98;7.10;;;;;;;1.88;77.79;98912.02;1749547;80;21028;-73
2021/12/19 08:38:14;;;;;;;11.03;8.00;;;;;;;1.86;78.08;98916.50;1746542;80;21103;-75
2021/12/19 08:40:41;;;;;;;12.03;8.55;;;;;;;1.84;78.27;98931.39;1733070;80;22876;-74
2021/12/19 08:43:09;;;;;;;10.30;8.08;;;;;;;1.85;78.31;98919.20;1733903;80;21012;-73
2021/12/19 08:45:36;;;;;;;12.45;8.68;;;;;;;1.86;78.38;98917.80;1759895;79;21601;-75
2021/12/19 08:48:04;;;;;;;12.28;8.60;;;;;;;1.87;78.44;98920.77;1751869;80;22135;-73
2021/12/19 08:50:32;;;;;;;12.07;7.95;;;;;;;1.88;78.50;98920.30;1768084;79;21016;-73
2021/12/19 08:52:58;;;;;;;10.43;8.40;;;;;;;1.88;78.53;98892.48;1709407;82;21874;-75
2021/12/19 08:55:25;;;;;;;11.22;7.28;;;;;;;1.89;78.53;98888.11;1740109;80;21454;-78
2021/12/19 08:57:57;;;;;;;10.50;8.03;;;;;;;1.88;78.77;98880.77;1734917;80;21088;-74
2021/12/19 09:00:24;;;;;;;10.20;7.05;;;;;;;1.88;78.78;98849.53;1771790;79;21043;-76
2021/12/19 09:02:54;;;;;;;10.78;7.72;;;;;;;1.86;78.91;98839.70;1783543;79;21011;-76
2021/12/19 09:05:20;;;;;;;11.12;8.03;;;;;;;1.85;79.15;98838.03;1745915;80;21825;-75
2021/12/19 09:07:47;;;;;;;10.35;6.60;;;;;;;1.84;79.35;98839.44;1769946;79;21411;-74
2021/12/19 09:10:15;;;;;;;9.35;7.10;;;;;;;1.84;79.50;98809.50;1772792;80;21099;-75
2021/12/19 09:12:42;;;;;;;9.98;7.90;;;;;;;1.82;79.83;98832.19;1776871;79;21099;-75
2021/12/19 09:15:09;;;;;;;9.23;7.15;;;;;;;1.81;80.18;98806.63;1771180;80;21000;-75
2021/12/19 09:17:35;;;;;;;11.83;8.38;;;;;;;1.83;80.28;98803.91;1771287;80;22424;-74
2021/12/19 09:20:04;;;;;;;9.78;8.05;;;;;;;1.82;80.30;98790.06;1763530;80;21388;-76
2021/12/19 09:22:30;;;;;;;10.03;7.78;;;;;;;1.84;80.32;98789.98;1760301;79;21427;-76
2021/12/19 09:24:57;;;;;;;9.60;7.33;;;;;;;1.85;80.36;98784.66;1709618;82;21042;-79
2021/12/19 09:27:23;;;;;;;10.60;7.50;;;;;;;1.88;80.36;98786.22;1708292;83;21074;-78
2021/12/19 09:29:50;;;;;;;11.03;7.92;;;;;;;1.88;80.31;98779.23;1713949;82;22671;-78
2021/12/19 09:32:18;;;;;;;9.38;7.30;;;;;;;1.89;80.33;98773.56;1681306;85;20954;-79
2021/12/19 09:34:45;;;;;;;12.90;9.20;;;;;;;1.88;80.33;98781.01;1717099;83;21024;-79
2021/12/19 09:37:12;;;;;;;9.30;7.37;;;;;;;1.90;80.31;98773.45;1716947;81;21045;-75
2021/12/19 09:39:39;;;;;;;11.48;8.13;;;;;;;1.94;80.25;98765.80;1717137;81;20884;-78
2021/12/19 09:42:09;;;;;;;10.15;6.80;;;;;;;1.96;80.15;98763.92;1715900;83;21842;-76
2021/12/19 09:44:35;;;;;;;8.68;6.45;;;;;;;1.98;80.12;98739.07;1719973;81;21487;-78
2021/12/19 09:47:02;;;;;;;9.63;8.18;;;;;;;1.98;80.39;98731.26;1713875;81;21079;-77
2021/12/19 09:49:33;;;;;;;9.80;7.25;;;;;;;1.98;80.35;98737.30;1720929;83;20945;-78
2021/12/19 09:51:59;;;;;;;8.68;7.15;;;;;;;1.99;80.43;98728.55;1693220;81;20977;-77
2021/12/19 09:54:25;;;;;;;8.45;6.92;;;;;;;1.99;80.54;98734.22;1727642;81;22641;-76
2021/12/19 09:56:52;;;;;;;8.78;7.58;;;;;;;1.99;80.72;98736.83;1721125;83;21419;-76
2021/12/19 09:59:25;;;;;;;12.05;8.00;;;;;;;1.96;80.91;98726.16;1732126;81;21529;-76
2021/12/19 10:01:53;;;;;;;9.50;6.90;;;;;;;1.96;81.05;98726.16;1739712;81;21576;-73
2021/12/19 10:04:41;;;;;;;8.45;6.72;;;;;;;1.95;81.18;98720.59;1730625;81;21050;-74
2021/12/19 10:07:27;;;;;;;9.58;6.72;;;;;;;1.96;81.29;98709.23;1756736;81;21055;-74
2021/12/19 10:10:04;;;;;;;8.75;6.53;;;;;;;1.96;81.46;98718.83;1713201;81;21020;-73
2021/12/19 10:15:18;;;;;;;8.10;6.00;;;;;;;1.97;81.62;98715.28;1718000;82;21411;-75
2021/12/19 10:17:46;;;;;;;;;;;;;;;1.98;81.61;98714.34;1731947;81;21090;-76
2021/12/19 10:20:16;;;;;;;6.72;5.15;;;;;;;1.98;81.72;98709.12;1764340;80;22490;-77
2021/12/19 10:22:46;;;;;;;7.65;6.22;;;;;;;1.99;81.77;98700.38;1754911;80;38127;-76
2021/12/19 10:25:27;;;;;;;9.33;6.58;;;;;;;2.01;81.81;98703.69;1759518;80;20977;-75
2021/12/19 10:28:03;;;;;;;7.90;5.78;;;;;;;2.00;81.96;98692.45;1754266;80;21298;-75
2021/12/19 10:30:35;;;;;;;7.72;6.10;;;;;;;1.98;82.42;98683.92;1734647;81;20955;-76
2021/12/19 10:33:09;;;;;;;6.70;5.42;;;;;;;2.00;82.64;98687.71;1754346;80;21492;-75
2021/12/19 10:35:46;;;;;;;;;;;;;;;1.98;82.70;98679.19;1756610;80;20917;-76
2021/12/19 10:38:19;;;;;;;6.58;5.20;;;;;;;1.97;82.78;98674.92;1751684;80;20141;-76
2021/12/19 10:41:00;;;;;;;6.87;5.70;;;;;;;1.94;82.80;98671.24;1759898;80;21554;-75
2021/12/19 10:43:31;;;;;;;7.92;5.85;;;;;;;1.93;82.81;98674.31;1749909;80;21083;-75
2021/12/19 10:46:01;;;;;;;9.05;5.97;;;;;;;1.90;82.80;98669.78;1767871;79;22665;-74
2021/12/19 10:48:36;;;;;;;7.55;5.80;;;;;;;1.88;82.79;98659.95;1773594;79;20955;-74
2021/12/19 10:51:10;;;;;;;7.20;5.28;;;;;;;1.86;82.77;98663.14;1781517;78;21047;-75
2021/12/19 10:53:41;;;;;;;10.13;6.10;;;;;;;1.85;82.79;98653.67;1779671;79;20999;-76
2021/12/19 10:56:27;;;;;;;10.32;6.12;;;;;;;1.84;82.78;98650.71;1772393;80;21008;-77
2021/12/19 10:59:02;;;;;;;11.33;7.20;;;;;;;1.85;82.75;98645.86;1784721;80;21759;-76
2021/12/19 11:01:41;;;;;;;11.57;7.17;;;;;;;1.82;82.59;98646.89;1784214;78;21039;-79
2021/12/19 11:04:12;;;;;;;8.68;6.37;;;;;;;1.82;82.54;98640.38;1753479;80;21141;-78
2021/12/19 11:06:58;;;;;;;13.58;7.65;;;;;;;1.81;82.44;98630.91;1766153;80;21717;-78
2021/12/19 11:09:30;;;;;;;8.00;5.67;;;;;;;1.80;82.40;98622.75;1768287;80;21027;-75
2021/12/19 11:12:04;;;;;;;8.60;5.50;;;;;;;1.79;82.32;98624.16;1769667;80;21573;-74
2021/12/19 11:14:43;;;;;;;7.10;4.97;;;;;;;1.76;82.22;98615.28;1772724;79;21040;-79
2021/12/19 11:17:18;;;;;;;7.75;5.47;;;;;;;1.71;82.19;98604.70;1784538;80;21668;-77
2021/12/19 11:19:45;;;;;;;5.58;4.40;;;;;;;1.68;82.14;98591.09;1784598;78;21027;-75
2021/12/19 11:22:12;;;;;;;7.85;5.75;;;;;;;1.64;82.10;98587.89;1783664;80;21469;-74
2021/12/19 11:24:39;;;;;;;7.50;5.03;;;;;;;1.60;82.00;98585.13;1767887;80;21844;-74
2021/12/19 11:27:07;;;;;;;6.53;4.87;;;;;;;1.52;81.94;98587.44;1784459;80;21063;-76
2021/12/19 11:29:33;;;;;;;6.40;4.87;;;;;;;1.47;81.95;98584.34;1785075;80;22191;-76
2021/12/19 11:32:05;;;;;;;7.62;4.97;;;;;;;1.42;81.93;98582.52;1766065;80;21089;-75
2021/12/19 11:35:07;;;;;;;5.72;4.75;;;;;;;1.38;81.88;98578.02;1758966;80;21722;-76
2021/12/19 11:37:43;;;;;;;7.33;5.00;;;;;;;1.32;81.88;98568.03;1783867;80;21843;-74
2021/12/19 11:40:12;;;;;;;6.03;4.80;;;;;;;1.25;81.86;98569.87;1787568;79;21491;-75
2021/12/19 11:42:39;;;;;;;7.08;5.35;;;;;;;1.19;81.91;98564.64;1776734;79;20999;-74
2021/12/19 11:48:10;;;;;;;8.35;5.33;;;;;;;1.11;81.99;98553.47;1772566;80;21159;-73
2021/12/19 11:50:47;;;;;;;8.90;5.25;;;;;;;1.09;82.02;98542.36;1780148;80;21806;-73
2021/12/19 11:53:19;;;;;;;6.80;5.53;;;;;;;1.07;82.07;98534.31;1746229;80;21023;-73
2021/12/19 11:55:50;;;;;;;6.87;4.85;;;;;;;1.03;82.09;98532.38;1781354;80;21042;-74
2021/12/19 11:58:23;;;;;;;8.40;5.65;;;;;;;1.00;82.18;98535.67;1780888;79;21102;-73
2021/12/19 12:01:05;;;;;;;9.67;6.17;;;;;;;0.98;82.29;98534.95;1774143;80;21008;-73
2021/12/19 12:03:47;;;;;;;6.90;5.00;;;;;;;0.96;82.34;98523.33;1768827;79;21841;-75
2021/12/19 12:06:20;;;;;;;7.17;4.75;;;;;;;0.94;82.41;98517.41;1784955;80;21034;-73
2021/12/19 12:09:23;;;;;;;5.40;4.05;;;;;;;0.92;82.51;98515.39;1774813;80;21048;-73
2021/12/19 12:12:07;;;;;;;5.90;4.10;;;;;;;0.91;82.62;98513.73;1754037;80;21117;-74
2021/12/19 12:14:55;;;;;;;6.17;4.40;;;;;;;0.94;82.69;98504.42;1784863;80;21039;-76
2021/12/19 12:17:32;;;;;;;5.10;4.33;;;;;;;0.94;82.75;98492.72;1784917;80;21813;-74
2021/12/19 12:20:00;;;;;;;5.95;4.33;;;;;;;0.97;82.85;98499.03;1764315;80;21438;-73
2021/12/19 12:22:33;;;;;;;5.90;4.90;;;;;;;1.01;82.94;98488.77;1783939;79;21027;-73
2021/12/19 12:25:09;;;;;;;7.67;5.58;;;;;;;1.05;83.00;98491.49;1783730;80;21426;-73
2021/12/19 12:27:54;;;;;;;8.68;5.47;;;;;;;1.07;83.02;98490.11;1729261;81;21050;-73
2021/12/19 12:30:36;;;;;;;9.68;6.15;;;;;;;1.09;83.06;98494.73;1750793;81;21860;-73
2021/12/19 12:33:07;;;;;;;9.98;5.87;;;;;;;1.10;83.09;98499.81;1784993;80;20972;-73
2021/12/19 12:35:38;;;;;;;10.38;6.25;;;;;;;1.12;83.09;98494.50;1779513;80;21457;-74
2021/12/19 12:38:05;;;;;;;9.15;6.03;;;;;;;1.13;83.13;98485.29;1784512;79;20986;-74
2021/12/19 12:40:48;;;;;;;7.92;5.70;;;;;;;1.14;83.21;98467.44;1785966;80;21012;-74
2021/12/19 12:43:20;;;;;;;8.68;5.90;;;;;;;1.20;83.30;98466.66;1785762;79;22548;-74
2021/12/19 12:45:50;;;;;;;8.25;5.87;;;;;;;1.25;83.41;98469.27;1785249;80;21388;-74
2021/12/19 12:48:43;;;;;;;11.20;7.10;;;;;;;1.30;83.53;98465.89;1772211;80;20949;-72